»·PEaware :: SKW4842 KFAT-KSLC

SKW4842 :: KFAT-KSLC

FLIGHT INFORMATION

Flight Status: Arrived
Operator:
SkyWest Airlines
More flights by this operator :: More flights under this callsign
Pilot: Aundrey S. (17120)
Aircraft: CANADAIR CL-600 CRJ-200
(CRJ2)
More flights by this aircraft type
Origin: KFAT Fresno Yosemite Intl
United States
Destination: KSLC Salt Lake City Intl
United States
More flights between these airports :: More routes between these airports
Route: +OAL4 NIKOL ASTNN RUBII FASTE BVL WAATS5
File this flight plan on PilotEdge
Remarks:
Altitude:
(Current/Filed)
31,000ft
Speed:
(Current/Filed)
450kts
Departed: 28-May-19 06:48 PM
Arrived: 28-May-19 08:04 PM
Distance/Time
Traveled:
434nm/1:16
Distance/Time
To Go:
Arrived

Flight Plot

Page will automatically refresh every two minutes.

Flight plan parsing failed; only flown route is shown


Map Options




Map Legend


Flown Route
Filed Route
Departure Airport
Arrival Airport
Navaid (VOR, NDB)
Fix

Horizontal Profiles

Position Reports

Time Latitude Longitude Heading Altitude Ground
Speed
28-May-19 18:17 36.771594 -119.719243 125 327ft 0kts
28-May-19 18:18 36.771594 -119.719243 125 327ft 0kts
28-May-19 18:19 36.771594 -119.719243 125 327ft 0kts
28-May-19 18:20 36.771594 -119.719243 125 327ft 0kts
28-May-19 18:21 36.771594 -119.719243 125 327ft 0kts
28-May-19 18:22 36.771594 -119.719243 125 327ft 0kts
28-May-19 18:23 36.771594 -119.719243 125 327ft 0kts
28-May-19 18:24 36.771594 -119.719243 125 327ft 0kts
28-May-19 18:25 36.771594 -119.719243 125 327ft 0kts
28-May-19 18:26 36.771594 -119.719243 125 327ft 0kts
28-May-19 18:27 36.771594 -119.719243 125 327ft 0kts
28-May-19 18:28 36.771594 -119.719243 125 327ft 0kts
28-May-19 18:29 36.771594 -119.719243 125 327ft 0kts
28-May-19 18:30 36.771594 -119.719243 125 327ft 0kts
28-May-19 18:32 36.771594 -119.719243 125 327ft 0kts
28-May-19 18:33 36.771594 -119.719243 125 327ft 0kts
28-May-19 18:34 36.771594 -119.719243 125 327ft 0kts
28-May-19 18:35 36.771594 -119.719243 125 327ft 0kts
28-May-19 18:36 36.771594 -119.719243 125 327ft 0kts
28-May-19 18:37 36.771592 -119.719239 125 327ft 0kts
28-May-19 18:38 36.771783 -119.719575 122 327ft 2kts
28-May-19 18:39 36.771680 -119.720160 34 327ft 0kts
28-May-19 18:40 36.771680 -119.720160 34 327ft 0kts
28-May-19 18:41 36.771680 -119.720160 34 327ft 0kts
28-May-19 18:42 36.771680 -119.720160 34 327ft 0kts
28-May-19 18:43 36.771680 -119.720160 34 327ft 0kts
28-May-19 18:44 36.772269 -119.719644 34 328ft 7kts
28-May-19 18:45 36.772078 -119.716158 71 330ft 10kts
28-May-19 18:46 36.769811 -119.711639 111 330ft 5kts
28-May-19 18:47 36.769827 -119.711258 68 330ft 1kts
28-May-19 18:48 36.775366 -119.718934 305 331ft 120kts
28-May-19 18:49 36.808958 -119.772550 313 1682ft 268kts
28-May-19 18:50 36.862735 -119.812695 11 6403ft 273kts
28-May-19 18:50 36.919081 -119.772590 33 9974ft 301kts
28-May-19 18:52 37.003672 -119.692855 36 10145ft 338kts
28-May-19 18:53 37.077786 -119.621248 36 11021ft 351kts
28-May-19 18:53 37.139901 -119.558366 38 15356ft 354kts
28-May-19 18:55 37.230859 -119.463491 38 20065ft 379kts
28-May-19 18:56 37.314376 -119.375995 38 23588ft 402kts
28-May-19 18:56 37.386977 -119.299558 36 26528ft 412kts
28-May-19 18:57 37.475706 -119.206126 35 29698ft 425kts
28-May-19 18:58 37.568286 -119.108328 34 31124ft 437kts
28-May-19 18:59 37.661168 -119.009845 34 31124ft 431kts
28-May-19 19:00 37.752868 -118.912268 35 31126ft 432kts
28-May-19 19:01 37.845452 -118.813406 36 31124ft 436kts
28-May-19 19:02 37.938435 -118.713764 36 31142ft 440kts
28-May-19 19:03 38.018649 -118.593868 50 31099ft 450kts
28-May-19 19:04 38.093201 -118.464233 51 31043ft 456kts
28-May-19 19:05 38.167075 -118.335220 52 31047ft 459kts
28-May-19 19:06 38.242447 -118.203094 52 31046ft 462kts
28-May-19 19:07 38.318137 -118.069873 52 31046ft 464kts
28-May-19 19:08 38.393274 -117.937092 52 31042ft 465kts
28-May-19 19:09 38.469006 -117.802740 52 31040ft 465kts
28-May-19 19:10 38.544863 -117.667549 52 31033ft 466kts
28-May-19 19:11 38.620605 -117.532031 52 31026ft 466kts
28-May-19 19:12 38.696081 -117.396392 52 31027ft 466kts
28-May-19 19:13 38.771290 -117.260715 53 31045ft 466kts
28-May-19 19:14 38.846306 -117.124780 53 31079ft 465kts
28-May-19 19:15 38.921071 -116.988753 53 31099ft 465kts
28-May-19 19:16 38.995499 -116.852755 53 31098ft 465kts
28-May-19 19:17 39.069908 -116.716209 53 31097ft 464kts
28-May-19 19:18 39.143932 -116.579824 53 31101ft 463kts
28-May-19 19:19 39.217722 -116.443258 53 31101ft 463kts
28-May-19 19:20 39.309292 -116.329538 34 31102ft 460kts
28-May-19 19:21 39.414395 -116.233933 34 31101ft 460kts
28-May-19 19:22 39.519220 -116.138218 34 31098ft 459kts
28-May-19 19:23 39.624084 -116.042092 34 31076ft 459kts
28-May-19 19:24 39.728377 -115.946127 34 31052ft 458kts
28-May-19 19:25 39.832013 -115.850428 34 31046ft 458kts
28-May-19 19:26 39.936449 -115.753606 34 31043ft 457kts
28-May-19 19:27 40.040574 -115.656704 34 31042ft 457kts
28-May-19 19:28 40.144780 -115.559354 34 31046ft 457kts
28-May-19 19:29 40.248679 -115.461917 34 31046ft 457kts
28-May-19 19:30 40.352042 -115.364611 34 31045ft 457kts
28-May-19 19:31 40.450171 -115.257617 57 31055ft 460kts
28-May-19 19:32 40.449984 -115.092245 105 31052ft 474kts
28-May-19 19:33 40.460437 -114.924444 77 31044ft 464kts
28-May-19 19:34 40.483264 -114.756783 77 31011ft 465kts
28-May-19 19:35 40.505861 -114.588162 77 30345ft 474kts
28-May-19 19:36 40.528479 -114.417283 77 29195ft 466kts
28-May-19 19:37 40.550290 -114.250705 77 27754ft 456kts
28-May-19 19:38 40.571433 -114.087315 78 26238ft 446kts
28-May-19 19:39 40.591928 -113.927104 78 24778ft 437kts
28-May-19 19:40 40.611650 -113.771092 78 23464ft 427kts
28-May-19 19:41 40.630901 -113.617153 78 22143ft 420kts
28-May-19 19:42 40.649613 -113.465847 78 20827ft 415kts
28-May-19 19:43 40.667897 -113.316269 79 19609ft 409kts
28-May-19 19:44 40.685800 -113.168359 79 18403ft 405kts
28-May-19 19:45 40.703311 -113.021925 79 17196ft 402kts
28-May-19 19:46 40.720094 -112.879957 79 16995ft 376kts
28-May-19 19:47 40.721612 -112.746280 88 16061ft 352kts
28-May-19 19:48 40.720501 -112.619682 89 14937ft 337kts
28-May-19 19:49 40.718573 -112.497192 90 13817ft 327kts
28-May-19 19:50 40.715079 -112.378087 91 12806ft 324kts
28-May-19 19:51 40.711482 -112.259226 89 12013ft 318kts
28-May-19 19:52 40.720347 -112.150191 58 11998ft 287kts
28-May-19 19:53 40.785950 -112.099224 359 11998ft 269kts
28-May-19 19:54 40.853315 -112.104317 357 11820ft 226kts
28-May-19 19:55 40.918357 -112.110218 357 10371ft 239kts
28-May-19 19:56 40.986003 -112.113577 8 8874ft 246kts
28-May-19 19:57 41.012534 -112.044395 94 7330ft 227kts
28-May-19 19:58 40.972274 -111.999497 165 7017ft 183kts
28-May-19 19:59 40.919174 -111.989985 173 6461ft 212kts
28-May-19 20:00 40.864095 -111.983501 175 5406ft 178kts
28-May-19 20:01 40.820554 -111.978469 175 4521ft 146kts
28-May-19 20:02 40.788626 -111.974753 174 4221ft 50kts
28-May-19 20:03 40.785145 -111.975335 206 4221ft 0kts
28-May-19 20:04 40.785187 -111.975943 348 4223ft 2kts
28-May-19 20:05 40.789130 -111.976989 354 4221ft 18kts
28-May-19 20:06 40.790250 -111.978665 267 4221ft 0kts
28-May-19 20:07 40.790247 -111.978751 267 4221ft 0kts
28-May-19 20:08 40.790245 -111.978837 267 4221ft 0kts
28-May-19 20:09 40.790242 -111.978923 267 4221ft 0kts
28-May-19 20:10 40.790240 -111.979010 267 4221ft 0kts
28-May-19 20:11 40.790237 -111.979096 267 4221ft 0kts
28-May-19 20:12 40.790235 -111.979182 267 4221ft 0kts
28-May-19 20:13 40.790232 -111.979268 267 4221ft 0kts
28-May-19 20:14 40.790230 -111.979355 267 4221ft 0kts
28-May-19 20:15 40.790227 -111.979441 267 4221ft 0kts
28-May-19 20:16 40.790225 -111.979528 267 4221ft 0kts
28-May-19 20:17 40.790222 -111.979614 267 4221ft 0kts
28-May-19 20:18 40.790219 -111.979701 267 4221ft 0kts

Navigation Log

Ident Type
Flight plan parsing failed, navigation log unavailable